Terminal Aerodrome Forecast
Issued by NWS Hastings, NE

Home | Current Version | Previous Version | Text Only | Print | Product List | Glossary On
Versions: 1 2 3 4 5 6 7 8 9 10 11 12 13 14 15 16 17 18 19 20 21 22 23 24 25 26 27 28 29 30
000
FTUS43 KGID 190550
TAFGRI
TAF
KGRI 190550Z 1906/2006 17009KT P6SM BKN035
     FM190900 17008KT 3SM BR SCT003 OVC007
      TEMPO 1911/1915 1/2SM FG OVC003
     FM191600 17008KT 3SM BR OVC003
     FM192000 17008KT P6SM OVC007
     FM200200 16006KT 3SM BR OVC003=

USA.gov is the U.S. government's official web portal to all federal, state and local government web resources and services.